Galva, Kansas
Current Conditions -  °F | °C
As of 8:35 AM on Thursday 27 Nov 2014 (Local Time) from KEWK Reporting Station
Clear Clear  
Wind Chill: 19°   Ceiling: Unl
Heat Index: 25°   Visibility: 10mi
Dew Point: 16°   Wind: 5mph
Humidity: 69%   Direction: 60°ENE
Pressure: 30.5"   Gusts: NA
Location:  38.38°N, 97.54°W
Report Text: KEWK 271435Z AUTO 06004KT 10SM CLR M04/M09 A3050 RMK AO1
Loading
Personal Weather Stations






























Interactive Weather Map New forecast layout! Learn more

10-Day Weather Forecast

Advertisements
Track Severe Weather on mobile